Time;durP1;ratioP1;P1;durP2;ratioP2;P2;SDS_P1;SDS_P2;PMS_P1;PMS_P2;Temp;Humidity;BMP_temperature;BMP_pressure;BME280_temperature;BME280_humidity;BME280_pressure;Samples;Min_cycle;Max_cycle;Signal;HPM_P1;HPM_P2
2021/05/21 00:00:39;;;;;;;9.23;8.32;;;;;;;;;;5073859;28;20280;-78
2021/05/21 00:03:05;;;;;;;8.90;8.10;;;;;;;;;;5062452;28;20172;-77
2021/05/21 00:05:31;;;;;;;8.90;8.07;;;;;;;;;;5078524;28;20298;-77
2021/05/21 00:07:58;;;;;;;9.32;8.43;;;;;;;;;;5070367;28;20200;-80
2021/05/21 00:10:24;;;;;;;9.98;9.07;;;;;;;;;;5086457;28;20191;-79
2021/05/21 00:12:50;;;;;;;9.27;8.38;;;;;;;;;;5078167;28;20195;-78
2021/05/21 00:15:16;;;;;;;10.20;9.20;;;;;;;;;;5064546;28;20185;-81
2021/05/21 00:17:42;;;;;;;9.82;8.93;;;;;;;;;;5070712;28;20180;-79
2021/05/21 00:20:09;;;;;;;9.75;8.85;;;;;;;;;;5063114;28;20212;-80
2021/05/21 00:22:35;;;;;;;9.60;8.80;;;;;;;;;;5065626;28;20168;-77
2021/05/21 00:25:01;;;;;;;9.70;7.95;;;;;;;;;;5063301;28;20175;-80
2021/05/21 00:27:27;;;;;;;9.40;8.55;;;;;;;;;;5079251;28;20645;-79
2021/05/21 00:29:53;;;;;;;10.48;9.48;;;;;;;;;;5068265;28;20707;-78
2021/05/21 00:32:19;;;;;;;10.57;9.53;;;;;;;;;;5074724;28;20180;-79
2021/05/21 00:34:45;;;;;;;10.25;9.35;;;;;;;;;;5066047;28;20407;-78
2021/05/21 00:37:11;;;;;;;10.00;8.90;;;;;;;;;;5075278;28;20180;-79
2021/05/21 00:39:37;;;;;;;10.23;9.13;;;;;;;;;;5080214;28;20941;-79
2021/05/21 00:42:03;;;;;;;11.13;9.87;;;;;;;;;;5067744;28;20211;-77
2021/05/21 00:44:29;;;;;;;10.13;9.13;;;;;;;;;;5059927;28;20407;-78
2021/05/21 00:46:55;;;;;;;12.27;9.75;;;;;;;;;;5072203;28;20569;-78
2021/05/21 00:49:21;;;;;;;10.10;9.20;;;;;;;;;;5069823;28;20588;-79
2021/05/21 00:51:48;;;;;;;11.50;9.98;;;;;;;;;;5058657;28;20177;-76
2021/05/21 00:54:17;;;;;;;11.82;10.05;;;;;;;;;;5081178;28;20248;-79
2021/05/21 00:56:44;;;;;;;10.07;9.10;;;;;;;;;;5100411;28;20176;-78
2021/05/21 00:59:10;;;;;;;11.60;10.23;;;;;;;;;;5099796;28;20521;-78
2021/05/21 01:01:36;;;;;;;10.95;9.98;;;;;;;;;;5085387;28;20501;-79
2021/05/21 01:04:03;;;;;;;10.88;9.85;;;;;;;;;;5078856;28;20196;-79
2021/05/21 01:06:29;;;;;;;10.82;9.82;;;;;;;;;;5059748;28;20189;-78
2021/05/21 01:08:55;;;;;;;10.63;9.53;;;;;;;;;;5084697;28;20242;-79
2021/05/21 01:11:21;;;;;;;10.15;9.07;;;;;;;;;;5101276;28;20418;-78
2021/05/21 01:13:47;;;;;;;10.35;9.35;;;;;;;;;;5069090;28;20180;-79
2021/05/21 01:16:14;;;;;;;10.02;9.02;;;;;;;;;;5079241;28;20163;-79
2021/05/21 01:18:40;;;;;;;10.10;9.20;;;;;;;;;;5063897;28;20267;-77
2021/05/21 01:21:06;;;;;;;11.30;9.98;;;;;;;;;;5059268;28;20232;-79
2021/05/21 01:23:32;;;;;;;11.00;10.10;;;;;;;;;;5080784;28;20177;-78
2021/05/21 01:25:58;;;;;;;12.68;11.43;;;;;;;;;;5083446;28;20532;-77
2021/05/21 01:28:25;;;;;;;12.05;10.90;;;;;;;;;;5081529;28;20168;-78
2021/05/21 01:30:51;;;;;;;12.43;11.13;;;;;;;;;;5080553;28;20211;-78
2021/05/21 01:33:18;;;;;;;12.43;11.32;;;;;;;;;;5091747;28;20186;-80
2021/05/21 01:35:44;;;;;;;14.23;11.23;;;;;;;;;;5080615;28;20231;-79
2021/05/21 01:38:14;;;;;;;11.57;10.40;;;;;;;;;;5080558;28;20192;-79
2021/05/21 01:40:41;;;;;;;11.93;10.38;;;;;;;;;;5073774;28;20625;-78
2021/05/21 01:43:07;;;;;;;12.60;11.30;;;;;;;;;;5062396;28;20172;-80
2021/05/21 01:45:33;;;;;;;12.57;11.27;;;;;;;;;;5070792;28;20173;-78
2021/05/21 01:48:00;;;;;;;12.80;11.50;;;;;;;;;;5086457;28;20560;-78
2021/05/21 01:50:26;;;;;;;12.60;11.40;;;;;;;;;;5071837;28;20200;-79
2021/05/21 01:52:52;;;;;;;12.20;11.10;;;;;;;;;;5071781;28;20177;-80
2021/05/21 01:55:18;;;;;;;13.50;12.20;;;;;;;;;;5068433;28;20251;-78
2021/05/21 01:57:44;;;;;;;12.30;11.05;;;;;;;;;;5079929;28;20429;-79
2021/05/21 02:00:12;;;;;;;12.43;11.20;;;;;;;;;;5082060;28;20199;-79
2021/05/21 02:02:38;;;;;;;13.15;11.05;;;;;;;;;;5085125;28;20168;-79
2021/05/21 02:05:05;;;;;;;12.85;11.50;;;;;;;;;;5087299;28;20530;-77
2021/05/21 02:07:32;;;;;;;11.40;10.30;;;;;;;;;;5059569;28;20254;-78
2021/05/21 02:10:05;;;;;;;12.25;11.13;;;;;;;;;;5069101;28;20555;-78
2021/05/21 02:12:32;;;;;;;13.48;10.77;;;;;;;;;;5079259;28;20214;-78
2021/05/21 02:14:59;;;;;;;12.80;11.50;;;;;;;;;;5079707;28;20168;-80
2021/05/21 02:17:26;;;;;;;12.68;11.48;;;;;;;;;;5059373;28;20558;-78
2021/05/21 02:19:55;;;;;;;12.95;11.63;;;;;;;;;;5062167;28;20208;-79
2021/05/21 02:22:22;;;;;;;12.73;11.52;;;;;;;;;;5072685;28;20200;-77
2021/05/21 02:24:50;;;;;;;12.48;11.15;;;;;;;;;;5057479;28;20638;-79
2021/05/21 02:27:16;;;;;;;13.52;12.13;;;;;;;;;;5071949;28;21270;-78
2021/05/21 02:29:42;;;;;;;13.27;12.02;;;;;;;;;;5058585;28;20197;-78
2021/05/21 02:32:08;;;;;;;12.57;10.88;;;;;;;;;;5071094;28;20218;-78
2021/05/21 02:34:34;;;;;;;12.77;11.57;;;;;;;;;;5067559;28;20181;-79
2021/05/21 02:37:00;;;;;;;13.10;11.60;;;;;;;;;;5056091;28;20619;-78
2021/05/21 02:39:26;;;;;;;12.98;11.68;;;;;;;;;;5055888;28;20432;-79
2021/05/21 02:41:52;;;;;;;12.35;11.05;;;;;;;;;;5074480;28;20211;-78
2021/05/21 02:44:18;;;;;;;12.50;11.20;;;;;;;;;;5075103;28;20173;-78
2021/05/21 02:46:44;;;;;;;13.23;11.85;;;;;;;;;;5056550;28;20226;-80
2021/05/21 02:49:10;;;;;;;17.45;11.95;;;;;;;;;;5059275;28;20216;-78
2021/05/21 02:51:36;;;;;;;13.13;11.82;;;;;;;;;;5063018;28;20204;-79
2021/05/21 02:54:03;;;;;;;12.35;11.15;;;;;;;;;;5068813;28;20191;-80
2021/05/21 02:56:29;;;;;;;12.27;11.02;;;;;;;;;;5078409;28;20235;-78
2021/05/21 02:58:55;;;;;;;13.32;11.98;;;;;;;;;;5063772;28;20278;-78
2021/05/21 03:01:21;;;;;;;12.85;11.50;;;;;;;;;;5061465;28;20196;-77
2021/05/21 03:03:47;;;;;;;12.52;11.23;;;;;;;;;;5063930;28;20175;-78
2021/05/21 03:06:13;;;;;;;13.40;12.00;;;;;;;;;;5071147;28;20241;-77
2021/05/21 03:08:39;;;;;;;12.30;11.10;;;;;;;;;;5059230;28;20185;-79
2021/05/21 03:11:05;;;;;;;11.80;10.60;;;;;;;;;;5062568;28;20264;-79
2021/05/21 03:13:31;;;;;;;13.40;12.20;;;;;;;;;;5079234;28;20185;-79
2021/05/21 03:15:57;;;;;;;14.25;11.70;;;;;;;;;;5063554;28;20537;-79
2021/05/21 03:18:23;;;;;;;12.52;11.30;;;;;;;;;;5070223;28;20265;-79
2021/05/21 03:20:50;;;;;;;12.20;11.00;;;;;;;;;;5071665;28;20196;-79
2021/05/21 03:23:16;;;;;;;14.77;11.65;;;;;;;;;;5073888;28;20177;-79
2021/05/21 03:25:43;;;;;;;11.73;10.45;;;;;;;;;;5077069;28;20645;-78
2021/05/21 03:28:09;;;;;;;11.82;10.73;;;;;;;;;;5085752;28;20195;-80
2021/05/21 03:30:35;;;;;;;12.38;11.18;;;;;;;;;;5065683;28;20209;-78
2021/05/21 03:33:01;;;;;;;12.65;11.45;;;;;;;;;;5055416;28;20207;-78
2021/05/21 03:35:28;;;;;;;12.10;10.90;;;;;;;;;;5078949;28;20190;-79
2021/05/21 03:37:54;;;;;;;13.50;11.85;;;;;;;;;;5080585;28;20558;-77
2021/05/21 03:40:20;;;;;;;11.55;10.35;;;;;;;;;;5083398;28;20260;-79
2021/05/21 03:42:48;;;;;;;10.90;9.80;;;;;;;;;;5090278;28;20185;-78
2021/05/21 03:45:14;;;;;;;10.95;9.93;;;;;;;;;;5069698;28;20164;-81
2021/05/21 03:47:40;;;;;;;11.45;10.35;;;;;;;;;;5065399;28;20167;-77
2021/05/21 03:50:07;;;;;;;10.63;9.63;;;;;;;;;;5078912;28;20203;-77
2021/05/21 03:52:32;;;;;;;11.23;10.13;;;;;;;;;;5064475;28;20658;-80
2021/05/21 03:54:58;;;;;;;11.43;10.27;;;;;;;;;;5088885;28;20186;-79
2021/05/21 03:57:25;;;;;;;11.43;10.30;;;;;;;;;;5084431;28;20425;-80
2021/05/21 03:59:52;;;;;;;10.52;9.48;;;;;;;;;;5082615;28;20473;-77
2021/05/21 04:02:18;;;;;;;12.50;11.30;;;;;;;;;;5102743;28;20210;-81
2021/05/21 04:04:44;;;;;;;11.43;10.23;;;;;;;;;;5096555;28;20199;-78
2021/05/21 04:07:10;;;;;;;10.98;9.88;;;;;;;;;;5072156;28;20219;-78
2021/05/21 04:09:36;;;;;;;14.20;11.18;;;;;;;;;;5067873;28;20187;-79
2021/05/21 04:12:02;;;;;;;12.20;10.38;;;;;;;;;;5077238;28;20176;-80
2021/05/21 04:14:29;;;;;;;9.50;8.60;;;;;;;;;;5097846;28;20510;-79
2021/05/21 04:16:55;;;;;;;11.35;10.30;;;;;;;;;;5070977;28;20181;-78
2021/05/21 04:19:21;;;;;;;12.15;10.95;;;;;;;;;;5064356;28;20292;-79
2021/05/21 04:21:47;;;;;;;11.38;10.27;;;;;;;;;;5074936;28;20232;-78
2021/05/21 04:24:13;;;;;;;11.65;10.00;;;;;;;;;;5080999;28;20168;-78
2021/05/21 04:26:39;;;;;;;10.65;9.65;;;;;;;;;;5083215;28;20179;-79
2021/05/21 04:29:05;;;;;;;10.40;9.40;;;;;;;;;;5074187;28;20228;-78
2021/05/21 04:31:31;;;;;;;11.35;10.25;;;;;;;;;;5069363;28;20229;-78
2021/05/21 04:33:57;;;;;;;10.85;9.85;;;;;;;;;;5077285;28;20269;-80
2021/05/21 04:36:23;;;;;;;11.07;10.07;;;;;;;;;;5093066;28;20513;-78
2021/05/21 04:38:49;;;;;;;9.77;8.88;;;;;;;;;;5079973;28;20191;-80
2021/05/21 04:41:16;;;;;;;10.40;9.40;;;;;;;;;;5079251;28;20189;-77
2021/05/21 04:43:42;;;;;;;10.52;9.60;;;;;;;;;;5062944;28;20182;-76
2021/05/21 04:46:08;;;;;;;11.68;9.90;;;;;;;;;;5086694;28;20185;-77
2021/05/21 04:48:34;;;;;;;10.45;9.55;;;;;;;;;;5061867;28;20169;-77
2021/05/21 04:51:00;;;;;;;9.27;8.38;;;;;;;;;;5078271;28;20193;-78
2021/05/21 04:53:26;;;;;;;9.98;9.02;;;;;;;;;;5062364;28;20530;-78
2021/05/21 04:55:52;;;;;;;9.75;8.75;;;;;;;;;;5095630;28;20187;-78
2021/05/21 04:58:18;;;;;;;9.27;8.38;;;;;;;;;;5070098;28;20188;-76
2021/05/21 05:00:45;;;;;;;8.50;7.70;;;;;;;;;;5097134;28;20195;-79
2021/05/21 05:03:12;;;;;;;9.77;8.88;;;;;;;;;;5090719;28;20167;-79
2021/05/21 05:05:39;;;;;;;8.88;8.07;;;;;;;;;;5077676;28;20222;-78
2021/05/21 05:08:05;;;;;;;8.40;7.60;;;;;;;;;;5068322;28;20252;-79
2021/05/21 05:10:31;;;;;;;8.57;7.35;;;;;;;;;;5060643;28;20217;-77
2021/05/21 05:12:57;;;;;;;8.65;7.85;;;;;;;;;;5059009;28;20177;-78
2021/05/21 05:15:24;;;;;;;8.45;7.65;;;;;;;;;;5078290;28;20249;-79
2021/05/21 05:17:51;;;;;;;7.43;6.82;;;;;;;;;;5077702;28;20267;-78
2021/05/21 05:20:23;;;;;;;7.93;7.15;;;;;;;;;;5095164;28;20664;-76
2021/05/21 05:22:49;;;;;;;10.73;7.68;;;;;;;;;;5082186;28;20181;-78
2021/05/21 05:25:15;;;;;;;10.85;8.93;;;;;;;;;;5065172;28;20188;-77
2021/05/21 05:27:42;;;;;;;10.45;7.60;;;;;;;;;;5089614;28;20176;-78
2021/05/21 05:30:08;;;;;;;8.48;7.68;;;;;;;;;;5058529;28;20204;-78
2021/05/21 05:32:34;;;;;;;8.18;7.10;;;;;;;;;;5058805;28;20515;-78
2021/05/21 05:35:00;;;;;;;6.75;6.15;;;;;;;;;;5064482;28;20176;-76
2021/05/21 05:37:26;;;;;;;8.30;7.27;;;;;;;;;;5082528;28;20179;-77
2021/05/21 05:39:52;;;;;;;10.35;7.43;;;;;;;;;;5066395;28;20744;-79
2021/05/21 05:42:18;;;;;;;8.70;6.25;;;;;;;;;;5090034;28;20660;-77
2021/05/21 05:44:44;;;;;;;6.77;6.07;;;;;;;;;;5088611;28;20170;-79
2021/05/21 05:47:10;;;;;;;7.43;6.83;;;;;;;;;;5080058;28;20414;-79
2021/05/21 05:49:36;;;;;;;7.80;7.10;;;;;;;;;;5069226;28;20433;-77
2021/05/21 05:52:02;;;;;;;8.18;6.68;;;;;;;;;;5067475;28;20461;-78
2021/05/21 05:54:28;;;;;;;17.00;15.25;;;;;;;;;;5062348;28;20182;-78
2021/05/21 05:56:54;;;;;;;10.23;9.13;;;;;;;;;;5074321;28;20175;-79
2021/05/21 05:59:21;;;;;;;7.97;7.18;;;;;;;;;;5058354;28;20200;-79
2021/05/21 06:01:47;;;;;;;6.75;6.10;;;;;;;;;;5063221;28;20272;-77
2021/05/21 06:04:13;;;;;;;8.25;6.60;;;;;;;;;;5066257;28;20177;-79
2021/05/21 06:06:39;;;;;;;7.28;6.57;;;;;;;;;;5073354;28;20196;-78
2021/05/21 06:09:08;;;;;;;6.40;5.80;;;;;;;;;;5065596;28;20196;-77
2021/05/21 06:11:34;;;;;;;6.53;5.78;;;;;;;;;;5060274;28;20184;-79
2021/05/21 06:14:00;;;;;;;7.23;6.40;;;;;;;;;;5056436;28;20173;-79
2021/05/21 06:16:26;;;;;;;7.83;6.80;;;;;;;;;;5072426;28;20898;-77
2021/05/21 06:18:52;;;;;;;6.93;6.22;;;;;;;;;;5072582;28;20477;-79
2021/05/21 06:21:18;;;;;;;7.20;6.22;;;;;;;;;;5064940;28;20211;-77
2021/05/21 06:23:45;;;;;;;6.57;5.95;;;;;;;;;;5059863;28;20183;-78
2021/05/21 06:28:44;;;;;;;6.13;5.63;;;;;;;;;;5061877;28;20183;-77
2021/05/21 06:31:11;;;;;;;5.53;5.05;;;;;;;;;;5082546;28;20576;-76
2021/05/21 06:33:37;;;;;;;7.72;4.97;;;;;;;;;;5068574;28;20181;-78
2021/05/21 06:36:03;;;;;;;4.97;4.55;;;;;;;;;;5068875;28;20644;-78
2021/05/21 06:38:29;;;;;;;4.40;4.00;;;;;;;;;;5056153;28;20185;-80
2021/05/21 06:40:55;;;;;;;4.38;3.60;;;;;;;;;;5059460;28;20203;-79
2021/05/21 06:43:21;;;;;;;3.57;3.27;;;;;;;;;;5053185;28;20185;-78
2021/05/21 06:45:51;;;;;;;4.28;3.15;;;;;;;;;;5058376;28;20517;-78
2021/05/21 06:48:17;;;;;;;3.58;3.28;;;;;;;;;;5070347;28;20177;-78
2021/05/21 06:50:44;;;;;;;3.85;3.17;;;;;;;;;;5053069;28;20212;-80
2021/05/21 06:53:10;;;;;;;8.45;2.85;;;;;;;;;;5055429;28;20634;-77
2021/05/21 06:55:38;;;;;;;2.90;2.60;;;;;;;;;;5064095;28;20539;-79
2021/05/21 06:58:04;;;;;;;4.60;2.70;;;;;;;;;;5060175;28;20262;-78
2021/05/21 07:00:30;;;;;;;3.95;2.72;;;;;;;;;;5064927;28;20500;-76
2021/05/21 07:02:56;;;;;;;2.60;2.40;;;;;;;;;;5074161;28;20185;-76
2021/05/21 07:05:22;;;;;;;4.73;2.73;;;;;;;;;;5053726;28;20243;-80
2021/05/21 07:07:48;;;;;;;4.70;2.25;;;;;;;;;;5064242;28;20426;-80
2021/05/21 07:10:15;;;;;;;4.55;2.50;;;;;;;;;;5071398;28;20208;-77
2021/05/21 07:12:41;;;;;;;2.30;2.10;;;;;;;;;;5062124;28;20185;-80
2021/05/21 07:15:08;;;;;;;5.07;2.22;;;;;;;;;;5071438;28;20194;-78
2021/05/21 07:17:34;;;;;;;2.60;2.40;;;;;;;;;;5069019;28;20176;-78
2021/05/21 07:20:00;;;;;;;3.87;2.20;;;;;;;;;;5059542;28;20257;-78
2021/05/21 07:22:27;;;;;;;2.60;2.30;;;;;;;;;;5058641;28;20536;-79
2021/05/21 07:24:53;;;;;;;4.23;2.43;;;;;;;;;;5055162;28;20177;-77
2021/05/21 07:27:19;;;;;;;2.60;2.40;;;;;;;;;;5058119;28;20422;-78
2021/05/21 07:29:45;;;;;;;6.70;2.30;;;;;;;;;;5064630;28;20423;-79
2021/05/21 07:32:11;;;;;;;6.70;2.37;;;;;;;;;;5053738;28;20408;-77
2021/05/21 07:34:37;;;;;;;2.30;2.00;;;;;;;;;;5050940;28;20423;-79
2021/05/21 07:37:04;;;;;;;2.60;2.10;;;;;;;;;;5052155;28;20465;-77
2021/05/21 07:39:30;;;;;;;3.00;2.07;;;;;;;;;;5082103;28;20481;-80
2021/05/21 07:41:58;;;;;;;3.20;2.60;;;;;;;;;;5073505;28;20470;-77
2021/05/21 07:44:24;;;;;;;4.03;2.53;;;;;;;;;;5063392;28;20495;-79
2021/05/21 07:46:51;;;;;;;3.33;2.80;;;;;;;;;;5052325;28;20427;-79
2021/05/21 07:49:22;;;;;;;2.60;2.37;;;;;;;;;;5075303;28;20471;-79
2021/05/21 07:51:48;;;;;;;2.90;2.60;;;;;;;;;;5063842;28;20501;-77
2021/05/21 07:54:14;;;;;;;5.17;2.67;;;;;;;;;;5071091;28;20420;-78
2021/05/21 07:56:40;;;;;;;3.07;2.27;;;;;;;;;;5062009;28;20745;-77
2021/05/21 07:59:08;;;;;;;4.03;3.10;;;;;;;;;;5056511;28;20449;-79
2021/05/21 08:01:34;;;;;;;3.20;2.90;;;;;;;;;;5092539;28;20997;-77
2021/05/21 08:04:00;;;;;;;3.30;2.80;;;;;;;;;;5076425;28;20408;-79
2021/05/21 08:06:26;;;;;;;3.70;2.70;;;;;;;;;;5081915;28;20425;-78
2021/05/21 08:08:52;;;;;;;4.30;2.80;;;;;;;;;;5081665;28;20438;-77
2021/05/21 08:11:18;;;;;;;5.73;3.43;;;;;;;;;;5055683;28;20521;-76
2021/05/21 08:13:44;;;;;;;6.83;5.30;;;;;;;;;;5052411;28;20920;-74
2021/05/21 08:16:12;;;;;;;9.57;6.00;;;;;;;;;;5053179;28;20522;-73
2021/05/21 08:18:39;;;;;;;8.90;3.33;;;;;;;;;;5071590;28;20593;-71
2021/05/21 08:21:05;;;;;;;9.70;3.67;;;;;;;;;;5077759;28;20220;-74
2021/05/21 08:23:31;;;;;;;6.90;2.70;;;;;;;;;;5057965;28;20184;-72
2021/05/21 08:25:57;;;;;;;4.05;3.00;;;;;;;;;;5052172;28;20188;-74
2021/05/21 08:28:25;;;;;;;5.07;2.97;;;;;;;;;;5071061;28;20176;-74
2021/05/21 08:30:52;;;;;;;5.93;3.30;;;;;;;;;;5063305;28;20309;-72
2021/05/21 08:33:18;;;;;;;3.22;2.92;;;;;;;;;;5051919;28;20196;-72
2021/05/21 08:35:44;;;;;;;10.45;4.22;;;;;;;;;;5065197;28;20176;-74
2021/05/21 08:38:10;;;;;;;7.13;3.60;;;;;;;;;;5071669;28;20561;-73
2021/05/21 08:40:38;;;;;;;6.35;4.05;;;;;;;;;;5077730;28;20219;-73
2021/05/21 08:43:06;;;;;;;6.57;4.40;;;;;;;;;;5058438;28;20181;-73
2021/05/21 08:45:32;;;;;;;6.47;4.00;;;;;;;;;;5069775;28;20184;-74
2021/05/21 08:47:58;;;;;;;5.07;4.15;;;;;;;;;;5071542;28;20187;-72
2021/05/21 08:50:26;;;;;;;10.10;4.97;;;;;;;;;;5078962;28;20616;-73
2021/05/21 08:52:52;;;;;;;5.32;4.80;;;;;;;;;;5055027;28;20172;-74
2021/05/21 08:55:18;;;;;;;5.50;4.95;;;;;;;;;;5079029;28;20183;-73
2021/05/21 08:57:45;;;;;;;6.15;4.45;;;;;;;;;;5065874;28;20215;-74
2021/05/21 09:00:11;;;;;;;5.80;4.40;;;;;;;;;;5062158;28;20303;-74
2021/05/21 09:02:39;;;;;;;19.65;15.52;;;;;;;;;;5051766;28;20928;-72
2021/05/21 09:05:06;;;;;;;5.47;4.97;;;;;;;;;;5066976;28;20177;-72
2021/05/21 09:07:33;;;;;;;4.97;4.53;;;;;;;;;;5077687;28;20190;-72
2021/05/21 09:10:07;;;;;;;6.50;5.05;;;;;;;;;;5074745;28;20207;-73
2021/05/21 09:12:40;;;;;;;8.80;5.00;;;;;;;;;;5068478;28;20633;-73
2021/05/21 09:15:09;;;;;;;5.63;4.63;;;;;;;;;;5071530;28;20207;-74
2021/05/21 09:17:36;;;;;;;6.72;5.15;;;;;;;;;;5075776;28;20209;-73
2021/05/21 09:20:03;;;;;;;5.15;4.25;;;;;;;;;;5051236;28;20197;-73
2021/05/21 09:22:29;;;;;;;5.90;5.10;;;;;;;;;;5077156;28;20602;-74
2021/05/21 09:24:55;;;;;;;9.77;4.60;;;;;;;;;;5062475;28;20183;-73
2021/05/21 09:27:22;;;;;;;7.10;3.90;;;;;;;;;;5060815;28;20235;-73
2021/05/21 09:29:52;;;;;;;5.80;3.60;;;;;;;;;;5066707;28;20482;-74
2021/05/21 09:32:34;;;;;;;5.13;2.90;;;;;;;;;;5054603;28;20178;-74
2021/05/21 09:35:03;;;;;;;5.03;3.40;;;;;;;;;;5062563;28;20620;-73
2021/05/21 09:37:29;;;;;;;6.13;2.70;;;;;;;;;;5058028;28;20262;-74
2021/05/21 09:40:04;;;;;;;6.53;3.38;;;;;;;;;;5074077;28;20668;-73
2021/05/21 09:42:33;;;;;;;5.95;3.00;;;;;;;;;;5057710;28;20565;-74
2021/05/21 09:45:16;;;;;;;4.00;2.60;;;;;;;;;;5054835;28;20188;-74
2021/05/21 09:47:49;;;;;;;7.28;3.17;;;;;;;;;;5050746;28;20177;-73
2021/05/21 09:50:15;;;;;;;5.93;2.85;;;;;;;;;;5062576;28;20633;-73
2021/05/21 09:52:48;;;;;;;9.85;3.55;;;;;;;;;;5061542;28;20180;-73
2021/05/21 09:55:14;;;;;;;7.03;2.85;;;;;;;;;;5062392;28;20176;-73
2021/05/21 09:57:41;;;;;;;7.33;3.17;;;;;;;;;;5054298;28;20192;-74
2021/05/21 10:00:08;;;;;;;3.73;2.10;;;;;;;;;;5067892;28;20449;-73
2021/05/21 10:02:34;;;;;;;6.10;2.57;;;;;;;;;;5052362;28;20973;-74
2021/05/21 10:05:02;;;;;;;6.13;2.63;;;;;;;;;;5064898;28;20411;-72
2021/05/21 10:07:28;;;;;;;3.50;2.33;;;;;;;;;;5057590;28;20993;-74
2021/05/21 10:09:54;;;;;;;5.50;2.17;;;;;;;;;;5068853;28;20503;-74
2021/05/21 10:12:21;;;;;;;3.10;2.10;;;;;;;;;;5050267;28;20415;-75
2021/05/21 10:14:51;;;;;;;4.00;2.20;;;;;;;;;;5054474;28;20427;-72
2021/05/21 10:17:18;;;;;;;6.20;2.90;;;;;;;;;;5050580;28;20419;-73
2021/05/21 10:19:45;;;;;;;4.83;2.73;;;;;;;;;;5065459;28;20776;-73
2021/05/21 10:22:12;;;;;;;4.03;1.90;;;;;;;;;;5068340;28;20501;-74
2021/05/21 10:24:41;;;;;;;4.33;2.20;;;;;;;;;;5049988;28;20423;-73
2021/05/21 10:27:19;;;;;;;6.10;2.07;;;;;;;;;;5056766;28;20461;-73
2021/05/21 10:29:49;;;;;;;5.20;2.70;;;;;;;;;;5049917;28;20530;-74
2021/05/21 10:32:16;;;;;;;7.87;2.63;;;;;;;;;;5054709;28;20427;-73
2021/05/21 10:34:43;;;;;;;3.80;2.30;;;;;;;;;;5053850;28;20492;-75
2021/05/21 10:37:19;;;;;;;5.97;2.70;;;;;;;;;;5067630;28;20453;-73
2021/05/21 10:40:02;;;;;;;3.93;2.20;;;;;;;;;;5053150;28;20442;-74
2021/05/21 10:42:28;;;;;;;4.10;2.40;;;;;;;;;;5049438;28;21029;-74
2021/05/21 10:44:55;;;;;;;4.30;2.50;;;;;;;;;;5053151;28;20479;-74
2021/05/21 10:47:22;;;;;;;6.47;2.40;;;;;;;;;;5053785;28;20485;-74
2021/05/21 10:49:51;;;;;;;4.57;2.20;;;;;;;;;;5055832;28;20448;-75
2021/05/21 10:52:18;;;;;;;4.53;2.73;;;;;;;;;;5055645;28;20415;-74
2021/05/21 10:54:44;;;;;;;4.47;2.30;;;;;;;;;;5051021;28;20947;-74
2021/05/21 10:57:12;;;;;;;6.70;2.67;;;;;;;;;;5062175;28;20867;-75
2021/05/21 10:59:42;;;;;;;5.83;2.83;;;;;;;;;;5060145;28;20538;-75
2021/05/21 11:02:08;;;;;;;3.70;2.40;;;;;;;;;;5049125;28;20479;-73
2021/05/21 11:04:34;;;;;;;5.43;2.50;;;;;;;;;;5058650;28;20813;-74
2021/05/21 11:07:04;;;;;;;4.20;2.33;;;;;;;;;;5049044;28;20431;-74
2021/05/21 11:09:31;;;;;;;5.43;2.73;;;;;;;;;;5063789;28;20477;-75
2021/05/21 11:12:03;;;;;;;5.70;2.60;;;;;;;;;;5054049;28;20418;-73
2021/05/21 11:14:32;;;;;;;5.97;2.53;;;;;;;;;;5055157;28;20547;-74
2021/05/21 11:16:59;;;;;;;7.83;2.50;;;;;;;;;;5048996;28;20411;-75
2021/05/21 11:19:26;;;;;;;4.70;2.37;;;;;;;;;;5053232;28;20473;-75
2021/05/21 11:22:13;;;;;;;5.03;2.70;;;;;;;;;;5061198;28;20462;-73
2021/05/21 11:24:51;;;;;;;3.73;2.30;;;;;;;;;;5064497;28;20503;-75
2021/05/21 11:27:17;;;;;;;5.73;2.63;;;;;;;;;;5049854;28;20425;-75
2021/05/21 11:29:53;;;;;;;4.40;2.63;;;;;;;;;;5069022;28;20458;-74
2021/05/21 11:32:21;;;;;;;10.30;2.90;;;;;;;;;;5069250;28;20510;-76
2021/05/21 11:34:47;;;;;;;4.30;2.40;;;;;;;;;;5068487;28;20419;-75
2021/05/21 11:37:14;;;;;;;3.80;2.80;;;;;;;;;;5069092;28;20438;-74
2021/05/21 11:39:40;;;;;;;4.13;2.80;;;;;;;;;;5068919;28;20928;-75
2021/05/21 11:42:07;;;;;;;6.00;3.33;;;;;;;;;;5063416;28;20470;-75
2021/05/21 11:44:34;;;;;;;4.60;2.70;;;;;;;;;;5067189;28;21030;-77
2021/05/21 11:47:09;;;;;;;5.53;2.90;;;;;;;;;;5067112;28;20412;-78
2021/05/21 11:49:35;;;;;;;4.63;3.00;;;;;;;;;;5052131;28;20502;-76
2021/05/21 11:52:03;;;;;;;4.07;2.63;;;;;;;;;;5057075;28;20427;-75
2021/05/21 11:54:29;;;;;;;4.53;2.83;;;;;;;;;;5050717;28;20580;-75
2021/05/21 11:56:56;;;;;;;5.50;3.03;;;;;;;;;;5048638;28;21226;-74
2021/05/21 11:59:23;;;;;;;6.37;3.10;;;;;;;;;;5055672;28;20449;-74
2021/05/21 12:01:51;;;;;;;9.80;3.37;;;;;;;;;;5069623;28;20969;-77
2021/05/21 12:04:18;;;;;;;5.22;3.13;;;;;;;;;;5053567;28;20415;-77
2021/05/21 12:06:47;;;;;;;4.57;3.50;;;;;;;;;;5050062;28;20188;-78
2021/05/21 12:09:13;;;;;;;3.95;2.70;;;;;;;;;;5050395;28;20204;-75
2021/05/21 12:11:39;;;;;;;6.95;3.03;;;;;;;;;;5048989;28;20177;-78
2021/05/21 12:14:07;;;;;;;6.75;3.58;;;;;;;;;;5048276;28;20255;-75
2021/05/21 12:16:33;;;;;;;4.70;3.03;;;;;;;;;;5048263;28;20527;-76
2021/05/21 12:19:00;;;;;;;3.63;2.50;;;;;;;;;;5049679;28;20267;-77
2021/05/21 12:21:27;;;;;;;8.38;2.75;;;;;;;;;;5048575;28;20301;-76
2021/05/21 12:23:56;;;;;;;6.37;2.80;;;;;;;;;;5061979;28;20173;-76
2021/05/21 12:26:22;;;;;;;5.47;2.73;;;;;;;;;;5048569;28;20761;-76
2021/05/21 12:28:49;;;;;;;5.93;2.33;;;;;;;;;;5061687;28;20442;-74
2021/05/21 12:31:19;;;;;;;6.90;3.10;;;;;;;;;;5048393;28;20965;-75
2021/05/21 12:33:45;;;;;;;4.90;2.97;;;;;;;;;;5058434;28;20429;-76
2021/05/21 12:36:15;;;;;;;4.57;2.30;;;;;;;;;;5065467;28;20414;-77
2021/05/21 12:38:47;;;;;;;5.80;2.27;;;;;;;;;;5067695;28;20565;-76
2021/05/21 12:41:13;;;;;;;8.50;3.40;;;;;;;;;;5048106;28;20458;-76
2021/05/21 12:43:39;;;;;;;6.60;2.93;;;;;;;;;;5055244;28;20415;-75
2021/05/21 12:46:09;;;;;;;3.27;2.17;;;;;;;;;;5054856;28;20416;-77
2021/05/21 12:48:35;;;;;;;3.30;2.03;;;;;;;;;;5052995;28;20777;-76
2021/05/21 12:51:11;;;;;;;4.50;2.43;;;;;;;;;;5049489;28;20419;-75
2021/05/21 12:53:37;;;;;;;3.03;2.27;;;;;;;;;;5051310;28;20831;-75
2021/05/21 12:56:03;;;;;;;3.33;2.20;;;;;;;;;;5049155;28;20420;-75
2021/05/21 12:58:39;;;;;;;5.03;2.30;;;;;;;;;;5062298;28;20426;-76
2021/05/21 13:01:05;;;;;;;6.77;3.93;;;;;;;;;;5057031;28;20576;-77
2021/05/21 13:03:47;;;;;;;4.07;2.20;;;;;;;;;;5067271;28;20514;-77
2021/05/21 13:06:13;;;;;;;5.30;2.57;;;;;;;;;;5051751;28;20491;-76
2021/05/21 13:08:49;;;;;;;6.73;2.63;;;;;;;;;;5059390;28;20518;-76
2021/05/21 13:11:15;;;;;;;4.23;2.53;;;;;;;;;;5057079;28;20434;-75
2021/05/21 13:13:41;;;;;;;3.40;2.20;;;;;;;;;;5062796;28;20427;-78
2021/05/21 13:16:07;;;;;;;6.20;3.10;;;;;;;;;;5051628;28;20852;-76
2021/05/21 13:18:33;;;;;;;4.10;3.10;;;;;;;;;;5056283;28;20487;-73
2021/05/21 13:21:06;;;;;;;6.43;3.10;;;;;;;;;;5059759;28;20457;-74
2021/05/21 13:23:32;;;;;;;4.60;3.60;;;;;;;;;;5062043;28;20471;-77
2021/05/21 13:26:01;;;;;;;6.07;2.60;;;;;;;;;;5073625;28;20422;-76
2021/05/21 13:28:27;;;;;;;4.30;2.13;;;;;;;;;;5075964;28;20421;-75
2021/05/21 13:30:54;;;;;;;6.40;2.57;;;;;;;;;;5054444;28;20517;-75
2021/05/21 13:33:19;;;;;;;3.73;2.07;;;;;;;;;;5059118;28;20419;-77
2021/05/21 13:35:45;;;;;;;5.53;2.60;;;;;;;;;;5066229;28;21045;-75
2021/05/21 13:38:12;;;;;;;3.77;2.40;;;;;;;;;;5083815;28;20433;-77
2021/05/21 13:40:38;;;;;;;6.40;2.50;;;;;;;;;;5051431;28;21017;-77
2021/05/21 13:43:04;;;;;;;4.60;2.47;;;;;;;;;;5054215;28;20525;-79
2021/05/21 13:45:30;;;;;;;4.70;2.40;;;;;;;;;;5059809;28;20432;-75
2021/05/21 13:47:57;;;;;;;4.90;2.33;;;;;;;;;;5061233;28;20467;-76
2021/05/21 13:50:23;;;;;;;5.47;2.40;;;;;;;;;;5050323;28;20446;-76
2021/05/21 13:52:49;;;;;;;5.43;2.83;;;;;;;;;;5059225;28;20447;-76
2021/05/21 13:55:15;;;;;;;4.60;2.33;;;;;;;;;;5050675;28;20417;-75
2021/05/21 13:57:42;;;;;;;3.50;2.20;;;;;;;;;;5053099;28;20445;-76
2021/05/21 14:00:08;;;;;;;6.10;2.13;;;;;;;;;;5050464;28;20482;-78
2021/05/21 14:02:34;;;;;;;9.57;1.90;;;;;;;;;;5062080;28;20500;-75
2021/05/21 14:05:00;;;;;;;7.77;2.03;;;;;;;;;;5061641;28;21055;-75
2021/05/21 14:07:28;;;;;;;2.93;1.40;;;;;;;;;;5062865;28;20523;-73
2021/05/21 14:09:54;;;;;;;6.47;1.70;;;;;;;;;;5056107;28;20443;-77
2021/05/21 14:12:20;;;;;;;2.78;1.40;;;;;;;;;;5065407;28;20425;-77
2021/05/21 14:14:46;;;;;;;2.95;1.40;;;;;;;;;;5051034;28;20176;-75
2021/05/21 14:17:12;;;;;;;4.20;1.90;;;;;;;;;;5050378;28;20207;-76
2021/05/21 14:19:38;;;;;;;3.43;1.70;;;;;;;;;;5063788;28;20203;-74
2021/05/21 14:22:04;;;;;;;2.85;1.42;;;;;;;;;;5077158;28;20466;-76
2021/05/21 14:24:30;;;;;;;2.37;1.57;;;;;;;;;;5065594;28;20203;-76
2021/05/21 14:26:57;;;;;;;2.30;1.45;;;;;;;;;;5049885;28;20411;-75
2021/05/21 14:29:23;;;;;;;3.33;1.20;;;;;;;;;;5054055;28;20201;-76
2021/05/21 14:31:49;;;;;;;3.60;1.47;;;;;;;;;;5058710;28;20518;-77
2021/05/21 14:34:23;;;;;;;2.73;1.33;;;;;;;;;;5051357;28;20411;-77
2021/05/21 14:36:49;;;;;;;3.10;1.33;;;;;;;;;;5062351;28;20882;-74